createdAt,value
2018-06-12T00:01:14.577Z,8.73
2018-06-12T00:03:41.965Z,9.03
2018-06-12T00:06:09.297Z,9.03
2018-06-12T00:08:36.599Z,9.10
2018-06-12T00:11:03.977Z,9.40
2018-06-12T00:13:31.400Z,10.00
2018-06-12T00:15:58.703Z,9.83
2018-06-12T00:18:26.000Z,9.13
2018-06-12T00:20:53.312Z,8.85
2018-06-12T00:23:20.588Z,9.50
2018-06-12T00:25:47.959Z,9.93
2018-06-12T00:28:15.278Z,9.78
2018-06-12T00:30:42.545Z,9.20
2018-06-12T00:33:09.887Z,10.05
2018-06-12T00:35:37.238Z,9.68
2018-06-12T00:38:04.620Z,9.40
2018-06-12T00:40:31.899Z,8.50
2018-06-12T00:42:59.187Z,8.73
2018-06-12T00:45:26.514Z,10.60
2018-06-12T00:47:53.921Z,9.80
2018-06-12T00:50:21.222Z,8.83
2018-06-12T00:52:48.535Z,8.60
2018-06-12T00:55:15.874Z,9.45
2018-06-12T00:57:43.161Z,8.40
2018-06-12T01:00:10.471Z,8.60
2018-06-12T01:02:37.785Z,9.18
2018-06-12T01:05:05.146Z,8.93
2018-06-12T01:07:32.451Z,10.13
2018-06-12T01:09:59.725Z,8.53
2018-06-12T01:12:27.036Z,9.38
2018-06-12T01:14:54.608Z,8.53
2018-06-12T01:17:21.880Z,8.95
2018-06-12T01:19:49.253Z,8.90
2018-06-12T01:22:16.538Z,8.78
2018-06-12T01:24:43.837Z,8.48
2018-06-12T01:27:11.111Z,8.58
2018-06-12T01:29:38.406Z,8.70
2018-06-12T01:32:05.706Z,8.68
2018-06-12T01:34:33.119Z,8.65
2018-06-12T01:37:00.458Z,8.78
2018-06-12T01:39:27.769Z,9.05
2018-06-12T01:41:55.078Z,8.80
2018-06-12T01:44:22.404Z,8.40
2018-06-12T01:46:49.766Z,9.25
2018-06-12T01:49:17.027Z,8.77
2018-06-12T01:51:44.381Z,8.93
2018-06-12T01:54:11.646Z,8.00
2018-06-12T01:56:38.945Z,8.55
2018-06-12T01:59:06.161Z,9.48
2018-06-12T02:01:33.414Z,9.55
2018-06-12T02:04:00.744Z,9.18
2018-06-12T02:06:28.066Z,9.25
2018-06-12T02:08:55.391Z,9.50
2018-06-12T02:11:22.681Z,10.08
2018-06-12T02:13:50.016Z,10.60
2018-06-12T02:16:17.394Z,10.43
2018-06-12T02:18:44.663Z,11.87
2018-06-12T02:21:11.909Z,11.00
2018-06-12T02:23:39.176Z,9.43
2018-06-12T02:26:06.484Z,11.20
2018-06-12T02:28:33.780Z,11.10
2018-06-12T02:31:01.107Z,10.90
2018-06-12T02:33:28.342Z,9.95
2018-06-12T02:35:55.600Z,10.43
2018-06-12T02:38:22.927Z,9.60
2018-06-12T02:40:50.235Z,10.38
2018-06-12T02:43:17.572Z,10.30
2018-06-12T02:45:44.851Z,10.65
2018-06-12T02:48:12.170Z,11.05
2018-06-12T02:50:39.503Z,13.40
2018-06-12T02:53:06.843Z,12.75
2018-06-12T02:55:34.205Z,13.38
2018-06-12T02:58:01.712Z,13.40
2018-06-12T03:00:29.161Z,12.28
2018-06-12T03:02:56.558Z,12.58
2018-06-12T03:05:23.976Z,12.88
2018-06-12T03:07:51.199Z,11.80
2018-06-12T03:10:18.507Z,12.65
2018-06-12T03:12:45.784Z,13.30
2018-06-12T03:15:13.180Z,13.90
2018-06-12T03:17:40.440Z,12.53
2018-06-12T03:20:07.664Z,12.90
2018-06-12T03:22:34.972Z,12.20
2018-06-12T03:25:02.252Z,11.97
2018-06-12T03:27:29.538Z,12.47
2018-06-12T03:29:56.854Z,11.73
2018-06-12T03:32:24.112Z,11.63
2018-06-12T03:34:51.372Z,12.63
2018-06-12T03:37:18.662Z,13.43
2018-06-12T03:39:45.962Z,13.03
2018-06-12T03:42:13.185Z,12.97
2018-06-12T03:44:40.467Z,14.20
2018-06-12T03:47:07.692Z,13.38
2018-06-12T03:49:34.996Z,12.90
2018-06-12T03:52:02.330Z,14.40
2018-06-12T03:54:29.637Z,16.20
2018-06-12T03:56:56.872Z,15.32
2018-06-12T03:59:24.126Z,16.30
2018-06-12T04:01:51.449Z,16.12
2018-06-12T04:04:18.739Z,18.05
2018-06-12T04:06:45.995Z,19.80
2018-06-12T04:09:13.326Z,18.25
2018-06-12T04:11:40.533Z,19.45
2018-06-12T04:14:07.915Z,22.07
2018-06-12T04:16:36.460Z,21.45
2018-06-12T04:19:05.446Z,20.37
2018-06-12T04:21:32.940Z,18.92
2018-06-12T04:24:00.228Z,19.70
2018-06-12T04:26:27.560Z,20.60
2018-06-12T04:28:54.869Z,20.65
2018-06-12T04:31:22.253Z,20.30
2018-06-12T04:33:49.581Z,19.95
2018-06-12T04:36:16.858Z,20.60
2018-06-12T04:38:44.160Z,19.75
2018-06-12T04:41:11.455Z,20.83
2018-06-12T04:43:38.727Z,20.80
2018-06-12T04:46:06.600Z,20.50
2018-06-12T04:48:33.900Z,19.15
2018-06-12T04:51:01.190Z,19.07
2018-06-12T04:53:28.498Z,19.98
2018-06-12T04:55:55.817Z,20.30
2018-06-12T04:58:23.104Z,20.90
2018-06-12T05:00:50.394Z,19.15
2018-06-12T05:03:17.669Z,21.40
2018-06-12T05:05:45.221Z,21.20
2018-06-12T05:08:12.420Z,19.30
2018-06-12T05:10:39.772Z,19.32
2018-06-12T05:13:07.072Z,21.27
2018-06-12T05:15:34.381Z,20.10
2018-06-12T05:18:01.768Z,18.70
2018-06-12T05:20:29.062Z,19.95
2018-06-12T05:22:56.398Z,20.82
2018-06-12T05:25:23.745Z,20.10
2018-06-12T05:27:51.095Z,21.97
2018-06-12T05:30:18.404Z,20.57
2018-06-12T05:32:45.844Z,19.63
2018-06-12T05:35:13.074Z,19.70
2018-06-12T05:37:40.351Z,17.75
2018-06-12T05:40:07.623Z,19.00
2018-06-12T05:42:34.924Z,21.30
2018-06-12T05:45:02.195Z,20.62
2018-06-12T05:47:29.497Z,20.75
2018-06-12T05:49:56.918Z,21.30
2018-06-12T05:52:24.189Z,21.52
2018-06-12T05:54:51.484Z,21.82
2018-06-12T05:57:18.787Z,20.72
2018-06-12T05:59:46.035Z,20.12
2018-06-12T06:02:13.528Z,20.48
2018-06-12T06:04:40.815Z,21.05
2018-06-12T06:07:08.103Z,20.37
2018-06-12T06:09:35.422Z,19.90
2018-06-12T06:12:02.778Z,19.45
2018-06-12T06:14:29.967Z,21.60
2018-06-12T06:16:57.319Z,19.40
2018-06-12T06:19:24.669Z,18.12
2018-06-12T06:21:51.954Z,19.05
2018-06-12T06:24:20.030Z,17.30
2018-06-12T06:26:47.326Z,17.90
2018-06-12T06:29:14.655Z,19.70
2018-06-12T06:31:41.950Z,20.08
2018-06-12T06:34:09.268Z,18.48
2018-06-12T06:36:36.545Z,20.82
2018-06-12T06:39:06.611Z,21.25
2018-06-12T06:41:33.942Z,20.62
2018-06-12T06:44:01.283Z,22.22
2018-06-12T06:46:28.591Z,21.25
2018-06-12T06:48:55.822Z,22.45
2018-06-12T06:51:23.161Z,21.17
2018-06-12T06:53:50.424Z,19.87
2018-06-12T06:56:17.738Z,19.30
2018-06-12T06:58:45.151Z,21.57
2018-06-12T07:01:12.332Z,18.23
2018-06-12T07:03:39.592Z,19.42
2018-06-12T07:06:06.896Z,18.17
2018-06-12T07:08:34.161Z,18.02
2018-06-12T07:11:01.476Z,17.12
2018-06-12T07:13:28.785Z,14.55
2018-06-12T07:15:56.075Z,14.47
2018-06-12T07:18:23.369Z,14.95
2018-06-12T07:20:58.543Z,13.55
2018-06-12T07:23:25.841Z,12.30
2018-06-12T07:25:53.124Z,12.35
2018-06-12T07:28:20.448Z,12.68
2018-06-12T07:30:47.735Z,12.65
2018-06-12T07:33:14.958Z,13.03
2018-06-12T07:35:42.446Z,12.03
2018-06-12T07:38:09.750Z,11.00
2018-06-12T07:40:37.099Z,11.38
2018-06-12T07:43:04.404Z,8.25
2018-06-12T07:45:31.722Z,8.18
2018-06-12T07:47:58.997Z,10.63
2018-06-12T07:50:26.311Z,9.73
2018-06-12T07:52:53.565Z,7.00
2018-06-12T07:55:20.900Z,5.90
2018-06-12T07:57:48.266Z,5.25
2018-06-12T08:00:15.539Z,5.97
2018-06-12T08:02:42.806Z,5.58
2018-06-12T08:05:10.195Z,3.90
2018-06-12T08:07:37.508Z,5.53
2018-06-12T08:10:04.827Z,6.30
2018-06-12T08:12:32.190Z,6.67
2018-06-12T08:15:03.313Z,6.17
2018-06-12T08:17:30.747Z,6.47
2018-06-12T08:19:58.075Z,5.87
2018-06-12T08:22:25.361Z,5.35
2018-06-12T08:24:52.660Z,6.85
2018-06-12T08:27:19.950Z,7.17
2018-06-12T08:29:47.307Z,6.70
2018-06-12T08:32:14.566Z,6.40
2018-06-12T08:34:41.959Z,6.90
2018-06-12T08:37:09.255Z,7.20
2018-06-12T08:39:38.427Z,7.78
2018-06-12T08:42:06.228Z,7.50
2018-06-12T08:44:34.049Z,6.85
2018-06-12T08:47:01.974Z,7.15
2018-06-12T08:49:29.326Z,7.28
2018-06-12T08:51:57.403Z,6.63
2018-06-12T08:54:25.072Z,6.15
2018-06-12T08:56:52.377Z,6.65
2018-06-12T08:59:19.714Z,6.35
2018-06-12T09:01:47.002Z,6.50
2018-06-12T09:04:14.982Z,5.40
2018-06-12T09:06:42.279Z,4.60
2018-06-12T09:09:09.604Z,5.03
2018-06-12T09:11:37.054Z,4.30
2018-06-12T09:14:04.352Z,4.37
2018-06-12T09:16:31.695Z,4.42
2018-06-12T09:18:58.991Z,4.40
2018-06-12T09:21:26.322Z,3.92
2018-06-12T09:23:53.654Z,4.08
2018-06-12T09:26:20.945Z,4.30
2018-06-12T09:28:48.206Z,4.35
2018-06-12T09:31:15.536Z,4.20
2018-06-12T09:33:42.846Z,3.33
2018-06-12T09:36:15.819Z,3.83
2018-06-12T09:38:43.144Z,3.90
2018-06-12T09:41:10.435Z,3.47
2018-06-12T09:43:37.715Z,3.58
2018-06-12T09:46:05.056Z,3.50
2018-06-12T09:48:32.374Z,3.40
2018-06-12T09:50:59.632Z,3.08
2018-06-12T09:53:26.920Z,3.47
2018-06-12T09:55:54.125Z,3.30
2018-06-12T09:58:21.456Z,3.62
2018-06-12T10:00:54.435Z,3.45
2018-06-12T10:03:21.820Z,3.70
2018-06-12T10:05:49.085Z,3.65
2018-06-12T10:08:16.443Z,4.20
2018-06-12T10:10:43.849Z,4.13
2018-06-12T10:13:11.090Z,4.40
2018-06-12T10:15:38.428Z,5.70
2018-06-12T10:18:05.764Z,6.35
2018-06-12T10:20:33.116Z,7.30
2018-06-12T10:23:00.474Z,6.87
2018-06-12T10:25:27.820Z,8.73
2018-06-12T10:27:55.085Z,7.17
2018-06-12T10:30:22.497Z,7.22
2018-06-12T10:32:49.787Z,8.33
2018-06-12T10:35:17.052Z,9.60
2018-06-12T10:37:44.380Z,8.35
2018-06-12T10:40:11.620Z,7.67
2018-06-12T10:42:38.924Z,6.92
2018-06-12T10:45:06.185Z,5.90
2018-06-12T10:47:33.472Z,6.00
2018-06-12T10:50:00.794Z,5.12
2018-06-12T10:52:28.116Z,4.73
2018-06-12T10:54:55.437Z,4.20
2018-06-12T10:57:22.786Z,3.70
2018-06-12T10:59:50.078Z,3.47
2018-06-12T11:02:17.387Z,4.23
2018-06-12T11:04:44.653Z,5.47
2018-06-12T11:07:11.902Z,8.40
2018-06-12T11:09:39.197Z,9.90
2018-06-12T11:12:06.539Z,10.15
2018-06-12T11:14:33.845Z,12.23
2018-06-12T11:17:01.054Z,11.38
2018-06-12T11:19:28.336Z,12.77
2018-06-12T11:21:55.568Z,12.88
2018-06-12T11:24:25.939Z,11.78
2018-06-12T11:26:59.590Z,12.10
2018-06-12T11:29:27.187Z,11.80
2018-06-12T11:31:54.490Z,11.28
2018-06-12T11:34:21.780Z,10.35
2018-06-12T11:36:49.075Z,9.03
2018-06-12T11:39:16.331Z,7.10
2018-06-12T11:41:43.692Z,6.92
2018-06-12T11:44:10.992Z,6.30
2018-06-12T11:46:38.230Z,6.50
2018-06-12T11:49:05.639Z,7.95
2018-06-12T11:51:32.929Z,9.28
2018-06-12T11:54:00.279Z,12.05
2018-06-12T11:56:27.667Z,55.80
2018-06-12T12:01:48.067Z,13.05
2018-06-12T12:04:15.347Z,14.70
2018-06-12T12:06:42.647Z,16.52
2018-06-12T12:09:09.904Z,17.70
2018-06-12T12:11:39.577Z,17.12
2018-06-12T12:14:06.994Z,18.37
2018-06-12T12:16:34.327Z,19.12
2018-06-12T12:19:01.740Z,19.27
2018-06-12T12:21:29.005Z,22.10
2018-06-12T12:23:56.265Z,23.02
2018-06-12T12:26:25.334Z,23.02
2018-06-12T12:28:52.672Z,20.70
2018-06-12T12:31:19.976Z,21.80
2018-06-12T12:33:47.281Z,20.95
2018-06-12T12:36:14.570Z,22.55
2018-06-12T12:38:41.910Z,21.05
2018-06-12T12:41:09.596Z,16.52
2018-06-12T12:43:36.950Z,17.45
2018-06-12T12:46:04.276Z,18.75
2018-06-12T12:48:31.624Z,17.82
2018-06-12T12:50:58.875Z,16.57
2018-06-12T12:53:26.278Z,16.35
2018-06-12T12:55:53.612Z,16.97
2018-06-12T12:58:20.940Z,18.30
2018-06-12T13:00:48.195Z,17.80
2018-06-12T13:03:15.508Z,16.50
2018-06-12T13:05:42.794Z,17.42
2018-06-12T13:08:10.131Z,16.73
2018-06-12T13:10:37.348Z,16.90
2018-06-12T13:13:04.721Z,14.18
2018-06-12T13:15:31.967Z,11.78
2018-06-12T13:17:59.286Z,9.95
2018-06-12T13:20:26.678Z,9.23
2018-06-12T13:22:54.067Z,10.43
2018-06-12T13:25:21.320Z,21.77
2018-06-12T13:27:48.601Z,14.15
2018-06-12T13:30:15.905Z,10.00
2018-06-12T13:32:43.253Z,9.70
2018-06-12T13:35:10.640Z,10.10
2018-06-12T13:37:37.960Z,10.75
2018-06-12T13:40:05.317Z,11.35
2018-06-12T13:42:32.527Z,11.05
2018-06-12T13:44:59.900Z,11.70
2018-06-12T13:47:27.246Z,10.43
2018-06-12T13:49:54.543Z,11.53
2018-06-12T13:52:21.830Z,11.73
2018-06-12T13:54:49.179Z,11.15
2018-06-12T13:57:16.502Z,11.90
2018-06-12T13:59:43.752Z,11.08
2018-06-12T14:02:11.056Z,11.73
2018-06-12T14:04:41.704Z,12.15
2018-06-12T14:07:15.067Z,12.10
2018-06-12T14:09:48.433Z,11.53
2018-06-12T14:13:34.748Z,11.10
2018-06-12T14:16:01.834Z,11.20
2018-06-12T14:18:29.101Z,11.53
2018-06-12T14:21:00.312Z,11.53
2018-06-12T14:23:27.597Z,10.80
2018-06-12T14:25:55.050Z,11.50
2018-06-12T14:28:22.324Z,11.30
2018-06-12T14:30:49.738Z,10.68
2018-06-12T14:33:17.042Z,10.40
2018-06-12T14:35:44.347Z,8.78
2018-06-12T14:38:11.732Z,8.80
2018-06-12T14:40:39.088Z,8.50
2018-06-12T14:43:06.372Z,8.60
2018-06-12T14:45:40.923Z,8.98
2018-06-12T14:48:08.437Z,8.60
2018-06-12T14:50:48.097Z,8.00
2018-06-12T14:53:17.568Z,7.35
2018-06-12T14:55:50.328Z,6.60
2018-06-12T14:58:18.356Z,6.55
2018-06-12T15:00:45.977Z,5.58
2018-06-12T15:03:13.375Z,6.05
2018-06-12T15:05:44.731Z,6.00
2018-06-12T15:08:12.049Z,6.65
2018-06-12T15:10:48.103Z,6.23
2018-06-12T15:13:23.983Z,7.08
2018-06-12T15:15:51.684Z,7.17
2018-06-12T15:18:42.290Z,7.03
2018-06-12T15:21:15.221Z,7.40
2018-06-12T15:23:42.576Z,7.22
2018-06-12T15:26:11.245Z,7.60
2018-06-12T15:28:38.532Z,7.17
2018-06-12T15:31:06.450Z,6.90
2018-06-12T15:33:33.731Z,6.35
2018-06-12T15:36:01.003Z,6.87
2018-06-12T15:38:28.329Z,8.18
2018-06-12T15:40:55.571Z,8.00
2018-06-12T15:43:22.884Z,8.70
2018-06-12T15:45:50.201Z,8.47
2018-06-12T15:48:17.435Z,7.65
2018-06-12T15:50:44.735Z,7.63
2018-06-12T15:53:11.993Z,8.23
2018-06-12T15:55:39.383Z,8.30
2018-06-12T15:58:14.749Z,9.23
2018-06-12T16:00:42.105Z,8.63
2018-06-12T16:03:09.837Z,9.05
2018-06-12T16:05:37.355Z,8.20
2018-06-12T16:08:04.990Z,7.80
2018-06-12T16:10:32.593Z,8.20
2018-06-12T16:14:24.510Z,8.78
2018-06-12T16:16:52.018Z,8.40
2018-06-12T16:19:19.253Z,7.78
2018-06-12T16:21:46.652Z,8.15
2018-06-12T16:24:13.923Z,8.53
2018-06-12T16:26:41.307Z,9.70
2018-06-12T16:29:08.615Z,9.15
2018-06-12T16:31:36.034Z,9.28
2018-06-12T16:34:03.658Z,8.88
2018-06-12T16:36:30.959Z,9.20
2018-06-12T16:38:58.204Z,8.88
2018-06-12T16:41:25.591Z,62.25
2018-06-12T16:43:52.968Z,10.10
2018-06-12T16:46:21.015Z,8.28
2018-06-12T16:48:48.290Z,7.33
2018-06-12T16:51:15.684Z,7.87
2018-06-12T16:53:43.059Z,8.10
2018-06-12T16:56:10.765Z,8.93
2018-06-12T16:58:38.234Z,10.25
2018-06-12T17:01:06.421Z,17.87
2018-06-12T17:03:33.985Z,22.80
2018-06-12T17:06:01.269Z,25.00
2018-06-12T17:08:28.603Z,26.97
2018-06-12T17:10:55.930Z,26.77
2018-06-12T17:13:23.256Z,26.60
2018-06-12T17:15:50.655Z,27.95
2018-06-12T17:18:18.686Z,28.45
2018-06-12T17:20:45.957Z,29.85
2018-06-12T17:23:13.327Z,28.98
2018-06-12T17:25:40.673Z,29.92
2018-06-12T17:28:08.475Z,27.82
2018-06-12T17:30:35.967Z,27.73
2018-06-12T17:33:09.567Z,28.75
2018-06-12T17:35:43.672Z,31.02
2018-06-12T17:38:11.731Z,28.00
2018-06-12T17:40:38.951Z,26.87
2018-06-12T17:43:06.234Z,29.42
2018-06-12T17:45:33.541Z,27.13
2018-06-12T17:48:00.866Z,26.60
2018-06-12T17:50:28.115Z,27.65
2018-06-12T17:53:04.249Z,27.32
2018-06-12T17:55:31.512Z,28.92
2018-06-12T17:57:58.750Z,28.80
2018-06-12T18:00:26.062Z,30.97
2018-06-12T18:02:53.417Z,29.75
2018-06-12T18:05:21.241Z,29.02
2018-06-12T18:07:48.598Z,27.00
2018-06-12T18:10:22.333Z,25.40
2018-06-12T18:12:50.617Z,21.33
2018-06-12T18:17:53.723Z,20.12
2018-06-12T18:20:21.669Z,18.70
2018-06-12T18:22:49.188Z,16.50
2018-06-12T18:25:17.077Z,15.85
2018-06-12T18:27:45.282Z,15.48
2018-06-12T18:30:12.593Z,15.20
2018-06-12T18:32:39.803Z,15.33
2018-06-12T18:35:07.325Z,14.25
2018-06-12T18:37:34.609Z,14.65
2018-06-12T18:40:01.823Z,15.45
2018-06-12T18:42:29.122Z,15.15
2018-06-12T18:44:56.700Z,16.65
2018-06-12T18:47:24.180Z,17.25
2018-06-12T18:49:51.925Z,17.10
2018-06-12T18:52:19.614Z,17.62
2018-06-12T18:54:47.050Z,17.77
2018-06-12T18:57:14.516Z,16.48
2018-06-12T18:59:41.969Z,15.83
2018-06-12T19:02:09.417Z,16.50
2018-06-12T19:04:36.956Z,17.42
2018-06-12T19:07:04.518Z,16.52
2018-06-12T19:09:32.039Z,16.70
2018-06-12T19:11:59.642Z,16.33
2018-06-12T19:14:27.089Z,14.30
2018-06-12T19:16:54.650Z,14.33
2018-06-12T19:19:23.105Z,13.85
2018-06-12T19:21:50.617Z,17.27
2018-06-12T19:24:27.287Z,18.40
2018-06-12T19:26:55.118Z,19.27
2018-06-12T19:29:22.803Z,25.67
2018-06-12T19:31:50.339Z,34.58
2018-06-12T19:34:17.795Z,21.70
2018-06-12T19:36:53.170Z,20.62
2018-06-12T19:42:15.695Z,18.80
2018-06-12T19:44:43.162Z,17.92
2018-06-12T19:50:03.746Z,17.90
2018-06-12T19:53:00.419Z,19.27
2018-06-12T19:55:27.846Z,19.80
2018-06-12T19:57:55.280Z,19.97
2018-06-12T20:00:22.703Z,23.25
2018-06-12T20:02:51.847Z,22.20
2018-06-12T20:05:19.917Z,21.97
2018-06-12T20:07:47.810Z,21.50
2018-06-12T20:10:15.245Z,20.17
2018-06-12T20:12:42.756Z,19.30
2018-06-12T20:20:55.203Z,21.57
2018-06-12T20:23:22.879Z,20.25
2018-06-12T20:25:50.380Z,21.93
2018-06-12T20:28:17.930Z,22.85
2018-06-12T20:30:45.351Z,24.03
2018-06-12T20:33:12.832Z,24.35
2018-06-12T20:35:40.308Z,25.08
2018-06-12T20:38:15.792Z,26.17
2018-06-12T20:40:43.418Z,24.25
2018-06-12T20:43:10.998Z,24.32
2018-06-12T20:45:39.481Z,26.53
2018-06-12T20:48:07.055Z,23.65
2018-06-12T20:50:34.596Z,24.70
2018-06-12T20:53:27.507Z,24.27
2018-06-12T20:55:59.722Z,26.23
2018-06-12T21:01:19.710Z,24.15
2018-06-12T21:03:47.177Z,23.70
2018-06-12T21:06:14.774Z,23.80
2018-06-12T21:08:42.289Z,23.77
2018-06-12T21:11:09.869Z,23.52
2018-06-12T21:13:37.470Z,22.80
2018-06-12T21:16:04.933Z,23.22
2018-06-12T21:18:32.902Z,23.30
2018-06-12T21:21:00.486Z,21.55
2018-06-12T21:24:49.046Z,22.80
2018-06-12T21:27:16.562Z,22.02
2018-06-12T21:29:44.094Z,23.95
2018-06-12T21:32:12.151Z,22.70
2018-06-12T21:34:41.932Z,22.27
2018-06-12T21:37:09.427Z,21.02
2018-06-12T21:39:37.996Z,20.60
2018-06-12T21:42:05.597Z,20.97
2018-06-12T21:44:33.007Z,20.10
2018-06-12T21:47:12.019Z,19.90
2018-06-12T21:49:43.189Z,20.37
2018-06-12T21:52:11.998Z,18.95
2018-06-12T21:54:48.745Z,20.27
2018-06-12T21:57:16.554Z,18.07
2018-06-12T21:59:44.075Z,20.07
2018-06-12T22:02:13.888Z,20.13
2018-06-12T22:04:48.520Z,19.20
2018-06-12T22:07:25.225Z,19.20
2018-06-12T22:09:52.616Z,19.82
2018-06-12T22:12:20.031Z,18.73
2018-06-12T22:14:48.471Z,18.82
2018-06-12T22:17:15.937Z,18.00
2018-06-12T22:19:43.372Z,19.73
2018-06-12T22:22:10.863Z,19.02
2018-06-12T22:24:38.341Z,18.13
2018-06-12T22:27:05.761Z,18.50
2018-06-12T22:29:33.206Z,19.00
2018-06-12T22:32:00.756Z,17.85
2018-06-12T22:34:28.247Z,18.50
2018-06-12T22:36:55.751Z,19.32
2018-06-12T22:39:23.178Z,17.60
2018-06-12T22:41:50.632Z,18.17
2018-06-12T22:44:18.138Z,17.30
2018-06-12T22:46:45.626Z,17.77
2018-06-12T22:49:13.148Z,18.02
2018-06-12T22:54:42.700Z,16.90
2018-06-12T22:57:16.056Z,15.20
2018-06-12T22:59:52.897Z,16.05
2018-06-12T23:02:21.107Z,16.48
2018-06-12T23:04:48.657Z,15.00
2018-06-12T23:07:15.996Z,16.70
2018-06-12T23:09:43.464Z,15.45
2018-06-12T23:12:11.020Z,15.68
2018-06-12T23:14:38.540Z,14.98
2018-06-12T23:17:06.203Z,14.33
2018-06-12T23:19:48.349Z,14.90
2018-06-12T23:22:16.157Z,14.95
2018-06-12T23:24:43.628Z,14.87
2018-06-12T23:27:11.219Z,13.98
2018-06-12T23:29:38.633Z,13.20
2018-06-12T23:32:06.106Z,13.43
2018-06-12T23:34:33.608Z,13.95
2018-06-12T23:37:01.124Z,13.90
2018-06-12T23:39:28.762Z,13.62
2018-06-12T23:41:57.142Z,13.90
2018-06-12T23:44:24.616Z,13.80
2018-06-12T23:46:52.078Z,14.45
2018-06-12T23:49:19.502Z,13.90
2018-06-12T23:51:46.942Z,14.93
2018-06-12T23:54:14.194Z,14.38
2018-06-12T23:56:41.550Z,14.58
2018-06-12T23:59:08.785Z,14.30
